Gray Army Air Field
KGRF : now visible

Airfield :











YOU CAN JOIN US ON...

 
LOGIN :

Register | Disclaimer

   EN    FR    IT 

 









Legend :    VFR   Marginal VFR   IFR   Intensive IFR   Very Intensive IFR
Visi :
Ceiling :
>= 8 km
>= 3000ft
5 to 8 km
1000 to 3000 ft
1500m to 5 km
500 to 1000 ft
800 to 1500m
200 to 500 ft
< 800m
< 200 ft
Symbols :   Thunderstorms  Fog  Heavy snow  Heavy precipitations  Wind > 20 kt






- Airport Elevation : 300 ft


KGRF - Gray Army Air Field

CURRENT METAR :
  • 291658Z AUTO 26004KT 10SM BKN180 17/15 A2996 RMK AO2 SLP148 T01690147 $

EXPIRED METARs :
  • 291558Z AUTO 27004KT 10SM BKN180 16/15 A2997 RMK AO2 SLP152 T01570149 $
  • 291458Z AUTO 23004KT 10SM OVC190 15/14 A2997 RMK AO2 SLP152 T01450143 51009 $

TAF TAF KGRF
Valid from the 29 at 13:00 until the 30 at 19:00 UTC


291309Z 2913/3019 VRB06KT 9999 BKN150 QNH2990INS
BECMG 2917/2918 35009KT 9999 BKN160 QNH2978INS
BECMG 3003/3004 VRB06KT 9999 SCT160 BKN250 QNH2977INS
BECMG 3017/3018 21009KT 8000 -SHRA VCTS BKN015 BKN030CB QNH2979INS TX24/2922Z TN14/2913Z
KZSE FIR / North America



MET'MAP, your aeronautical weather chart ! - Copyright ORBIFLY December 2007 - Disclaimer

ORBIFLY MET'MAP TEAM :

Programming & Development : Alexandra Zaïnal
Concept & original design : Baudouin d'Aumeries
Assistance for programming : Marc-Olivier Méhu
Technical & hardware support : Manuel Goepfert

Contact : metmap@orbifly.com




SOURCES & CREDITS :

   NOAA       Earth
Advisory